createdAt,value
2022-11-13T00:00:48.775Z,20.02
2022-11-13T00:02:38.845Z,18.90
2022-11-13T00:04:29.159Z,20.52
2022-11-13T00:06:20.240Z,20.95
2022-11-13T00:08:10.844Z,20.77
2022-11-13T00:10:01.209Z,19.05
2022-11-13T00:11:51.429Z,21.55
2022-11-13T00:13:43.035Z,21.13
2022-11-13T00:15:33.279Z,19.50
2022-11-13T00:17:23.752Z,21.00
2022-11-13T00:19:13.897Z,20.98
2022-11-13T00:21:08.548Z,19.08
2022-11-13T00:22:58.828Z,18.98
2022-11-13T00:24:49.281Z,19.02
2022-11-13T00:26:39.926Z,21.02
2022-11-13T00:28:30.636Z,19.67
2022-11-13T00:30:21.764Z,20.48
2022-11-13T00:32:12.118Z,20.30
2022-11-13T00:36:24.636Z,20.58
2022-11-13T00:38:16.419Z,20.23
2022-11-13T00:40:06.940Z,21.27
2022-11-13T00:41:57.273Z,21.63
2022-11-13T00:43:47.508Z,21.10
2022-11-13T00:45:37.462Z,19.17
2022-11-13T00:47:27.572Z,19.10
2022-11-13T00:49:17.981Z,20.35
2022-11-13T00:51:08.436Z,19.90
2022-11-13T00:52:58.517Z,19.08
2022-11-13T00:54:48.965Z,19.67
2022-11-13T00:56:39.469Z,20.20
2022-11-13T00:58:30.341Z,20.90
2022-11-13T01:00:21.214Z,21.15
2022-11-13T01:02:13.058Z,21.00
2022-11-13T01:04:03.140Z,20.00
2022-11-13T01:05:53.145Z,20.73
2022-11-13T01:07:43.444Z,20.67
2022-11-13T01:09:33.620Z,19.73
2022-11-13T01:11:27.294Z,21.58
2022-11-13T01:13:17.740Z,20.05
2022-11-13T01:15:08.560Z,20.13
2022-11-13T01:16:58.870Z,21.73
2022-11-13T01:18:49.335Z,19.42
2022-11-13T01:20:39.454Z,23.20
2022-11-13T01:22:29.792Z,23.75
2022-11-13T01:24:19.909Z,22.15
2022-11-13T01:26:16.486Z,22.48
2022-11-13T01:28:06.805Z,22.27
2022-11-13T01:29:57.114Z,24.13
2022-11-13T01:31:47.582Z,24.88
2022-11-13T01:33:38.157Z,22.65
2022-11-13T01:35:28.415Z,21.63
2022-11-13T01:37:18.793Z,20.73
2022-11-13T01:39:11.895Z,22.23
2022-11-13T01:41:01.955Z,22.00
2022-11-13T01:42:51.973Z,22.45
2022-11-13T01:44:49.655Z,21.45
2022-11-13T01:46:45.587Z,20.95
2022-11-13T01:48:44.053Z,21.42
2022-11-13T01:50:34.174Z,21.65
2022-11-13T01:52:36.543Z,20.50
2022-11-13T01:54:31.937Z,22.40
2022-11-13T01:56:22.783Z,22.35
2022-11-13T01:58:13.288Z,22.08
2022-11-13T02:00:09.704Z,20.58
2022-11-13T02:01:59.939Z,21.80
2022-11-13T02:03:50.552Z,20.63
2022-11-13T02:05:40.652Z,22.30
2022-11-13T02:07:31.248Z,20.42
2022-11-13T02:09:26.488Z,21.00
2022-11-13T02:11:17.731Z,20.40
2022-11-13T02:15:00.119Z,20.88
2022-11-13T02:16:54.502Z,19.40
2022-11-13T02:18:45.711Z,19.45
2022-11-13T02:20:40.381Z,22.77
2022-11-13T02:22:39.516Z,20.98
2022-11-13T02:24:37.808Z,20.70
2022-11-13T02:26:31.257Z,19.90
2022-11-13T02:28:21.826Z,20.35
2022-11-13T02:30:31.023Z,18.80
2022-11-13T02:32:21.075Z,18.55
2022-11-13T02:34:11.400Z,17.45
2022-11-13T02:36:02.550Z,18.67
2022-11-13T02:37:53.162Z,20.10
2022-11-13T02:39:43.313Z,17.43
2022-11-13T02:41:33.470Z,19.77
2022-11-13T02:43:23.833Z,18.75
2022-11-13T02:45:13.969Z,21.58
2022-11-13T02:47:04.327Z,19.33
2022-11-13T02:48:54.480Z,19.63
2022-11-13T02:50:44.859Z,19.30
2022-11-13T02:52:35.043Z,19.92
2022-11-13T02:54:25.743Z,18.15
2022-11-13T02:56:16.122Z,18.75
2022-11-13T02:58:06.196Z,18.35
2022-11-13T02:59:56.496Z,18.17
2022-11-13T03:01:47.605Z,17.80
2022-11-13T03:03:57.188Z,18.83
2022-11-13T03:05:49.880Z,17.00
2022-11-13T03:07:40.881Z,17.60
2022-11-13T03:09:31.415Z,18.83
2022-11-13T03:11:21.730Z,17.48
2022-11-13T03:13:11.965Z,17.55
2022-11-13T03:15:02.084Z,17.55
2022-11-13T03:16:52.316Z,17.98
2022-11-13T03:18:42.752Z,15.38
2022-11-13T03:20:32.884Z,17.00
2022-11-13T03:22:22.976Z,17.13
2022-11-13T03:24:13.309Z,17.33
2022-11-13T03:26:08.862Z,17.20
2022-11-13T03:27:59.493Z,16.20
2022-11-13T03:29:49.820Z,15.82
2022-11-13T03:31:39.949Z,16.98
2022-11-13T03:33:30.608Z,17.20
2022-11-13T03:35:22.434Z,16.55
2022-11-13T03:37:12.712Z,16.02
2022-11-13T03:39:03.375Z,15.60
2022-11-13T03:40:53.644Z,16.08
2022-11-13T03:42:44.142Z,16.33
2022-11-13T03:44:34.252Z,17.58
2022-11-13T03:46:24.701Z,15.68
2022-11-13T03:48:15.784Z,16.48
2022-11-13T03:50:06.356Z,18.13
2022-11-13T03:51:56.819Z,16.92
2022-11-13T03:53:46.977Z,17.25
2022-11-13T03:55:37.621Z,16.98
2022-11-13T03:57:27.633Z,16.60
2022-11-13T03:59:17.979Z,17.65
2022-11-13T04:01:08.256Z,16.77
2022-11-13T04:02:58.343Z,17.23
2022-11-13T04:04:48.523Z,18.08
2022-11-13T04:06:38.917Z,18.27
2022-11-13T04:08:29.808Z,19.73
2022-11-13T04:10:20.725Z,19.17
2022-11-13T04:12:11.154Z,18.92
2022-11-13T04:14:01.468Z,19.40
2022-11-13T04:15:51.632Z,19.92
2022-11-13T04:17:41.905Z,19.15
2022-11-13T04:19:32.388Z,19.40
2022-11-13T04:21:22.809Z,19.63
2022-11-13T04:23:14.452Z,19.45
2022-11-13T04:25:05.748Z,19.40
2022-11-13T04:26:55.975Z,18.55
2022-11-13T04:28:46.026Z,17.30
2022-11-13T04:30:36.039Z,19.15
2022-11-13T04:32:26.529Z,19.05
2022-11-13T04:34:16.824Z,19.58
2022-11-13T04:36:07.289Z,18.23
2022-11-13T04:37:57.685Z,19.43
2022-11-13T04:39:48.128Z,18.60
2022-11-13T04:41:56.789Z,18.60
2022-11-13T04:43:47.219Z,17.38
2022-11-13T04:45:37.727Z,18.88
2022-11-13T04:47:27.884Z,17.15
2022-11-13T04:49:18.193Z,16.95
2022-11-13T04:51:08.348Z,16.33
2022-11-13T04:52:58.721Z,18.02
2022-11-13T04:54:49.025Z,18.42
2022-11-13T04:56:39.414Z,17.60
2022-11-13T04:58:29.957Z,18.27
2022-11-13T05:00:20.560Z,17.45
2022-11-13T05:02:11.166Z,17.97
2022-11-13T05:04:01.270Z,17.42
2022-11-13T05:05:51.764Z,15.75
2022-11-13T05:07:42.749Z,16.38
2022-11-13T05:09:32.964Z,16.95
2022-11-13T05:11:23.372Z,18.23
2022-11-13T05:13:14.448Z,17.48
2022-11-13T05:15:05.249Z,17.92
2022-11-13T05:16:55.269Z,16.00
2022-11-13T05:18:45.549Z,16.02
2022-11-13T05:20:35.921Z,17.20
2022-11-13T05:22:26.492Z,17.95
2022-11-13T05:24:17.096Z,18.67
2022-11-13T05:26:10.617Z,17.73
2022-11-13T05:28:01.010Z,17.27
2022-11-13T05:29:51.397Z,16.55
2022-11-13T05:31:41.771Z,17.33
2022-11-13T05:33:31.991Z,16.85
2022-11-13T05:35:22.076Z,17.67
2022-11-13T05:37:12.088Z,17.00
2022-11-13T05:39:02.413Z,19.10
2022-11-13T05:40:52.933Z,19.02
2022-11-13T05:42:43.646Z,18.35
2022-11-13T05:44:33.773Z,18.33
2022-11-13T05:46:27.138Z,20.48
2022-11-13T05:48:17.465Z,18.23
2022-11-13T05:50:08.113Z,18.75
2022-11-13T05:51:58.128Z,17.55
2022-11-13T05:53:49.074Z,18.63
2022-11-13T05:55:39.467Z,18.20
2022-11-13T05:57:29.770Z,19.80
2022-11-13T05:59:19.746Z,18.80
2022-11-13T06:01:22.673Z,20.23
2022-11-13T06:03:13.064Z,21.00
2022-11-13T06:05:04.976Z,18.25
2022-11-13T06:06:55.278Z,19.35
2022-11-13T06:08:47.171Z,20.38
2022-11-13T06:12:29.948Z,21.77
2022-11-13T06:14:19.961Z,19.55
2022-11-13T06:16:16.484Z,19.67
2022-11-13T06:18:06.483Z,20.55
2022-11-13T06:19:56.588Z,20.42
2022-11-13T06:21:46.609Z,19.35
2022-11-13T06:23:38.741Z,18.45
2022-11-13T06:25:29.441Z,20.02
2022-11-13T06:27:19.846Z,20.08
2022-11-13T06:29:12.881Z,20.85
2022-11-13T06:31:13.416Z,19.60
2022-11-13T06:33:03.725Z,20.58
2022-11-13T06:34:54.085Z,22.58
2022-11-13T06:36:44.541Z,22.27
2022-11-13T06:38:37.079Z,20.75
2022-11-13T06:40:27.713Z,20.20
2022-11-13T06:42:17.756Z,20.90
2022-11-13T06:44:08.197Z,21.67
2022-11-13T06:45:59.044Z,20.52
2022-11-13T06:47:49.288Z,22.05
2022-11-13T06:49:39.559Z,21.50
2022-11-13T06:51:31.089Z,21.77
2022-11-13T06:53:21.304Z,21.48
2022-11-13T06:55:11.504Z,21.23
2022-11-13T06:57:01.990Z,20.55
2022-11-13T06:58:53.579Z,21.75
2022-11-13T07:02:34.580Z,20.17
2022-11-13T07:04:24.649Z,20.67
2022-11-13T07:06:17.575Z,19.88
2022-11-13T07:08:07.540Z,21.90
2022-11-13T07:09:57.443Z,21.10
2022-11-13T07:11:47.912Z,21.70
2022-11-13T07:13:38.945Z,22.42
2022-11-13T07:15:29.481Z,20.02
2022-11-13T07:17:19.927Z,23.00
2022-11-13T07:19:09.854Z,22.33
2022-11-13T07:21:05.411Z,22.70
2022-11-13T07:23:00.369Z,20.90
2022-11-13T07:24:50.970Z,24.10
2022-11-13T07:26:41.437Z,21.40
2022-11-13T07:28:31.902Z,19.98
2022-11-13T07:30:23.201Z,21.50
2022-11-13T07:32:13.493Z,21.40
2022-11-13T07:34:03.682Z,23.83
2022-11-13T07:35:55.568Z,22.88
2022-11-13T07:37:45.669Z,19.13
2022-11-13T07:39:36.091Z,18.92
2022-11-13T07:41:26.118Z,22.85
2022-11-13T07:43:16.217Z,20.35
2022-11-13T07:45:06.777Z,19.65
2022-11-13T07:46:56.823Z,20.33
2022-11-13T07:48:47.213Z,18.60
2022-11-13T07:50:38.652Z,20.15
2022-11-13T07:52:29.423Z,14.68
2022-11-13T07:54:19.902Z,15.20
2022-11-13T07:56:10.306Z,17.48
2022-11-13T07:58:00.868Z,17.77
2022-11-13T07:59:51.340Z,15.95
2022-11-13T08:01:41.665Z,18.58
2022-11-13T08:03:32.620Z,17.80
2022-11-13T08:05:23.361Z,19.00
2022-11-13T08:07:13.544Z,17.98
2022-11-13T08:09:04.360Z,16.90
2022-11-13T08:10:54.472Z,16.42
2022-11-13T08:12:45.808Z,17.10
2022-11-13T08:14:36.328Z,20.48
2022-11-13T08:16:27.675Z,19.35
2022-11-13T08:18:18.026Z,19.02
2022-11-13T08:20:09.224Z,19.13
2022-11-13T08:21:59.585Z,20.20
2022-11-13T08:23:50.485Z,20.17
2022-11-13T08:25:40.804Z,15.00
2022-11-13T08:27:31.247Z,19.75
2022-11-13T08:29:21.219Z,17.95
2022-11-13T08:31:13.524Z,18.55
2022-11-13T08:33:04.086Z,19.88
2022-11-13T08:34:54.501Z,19.73
2022-11-13T08:36:44.767Z,20.05
2022-11-13T08:38:35.310Z,17.73
2022-11-13T08:40:25.997Z,18.23
2022-11-13T08:42:16.430Z,17.65
2022-11-13T08:44:07.041Z,18.53
2022-11-13T08:45:57.566Z,18.42
2022-11-13T08:47:47.819Z,17.60
2022-11-13T08:49:38.006Z,16.83
2022-11-13T08:51:27.984Z,17.05
2022-11-13T08:53:18.555Z,19.30
2022-11-13T08:55:08.933Z,18.23
2022-11-13T08:57:04.694Z,17.08
2022-11-13T08:58:56.363Z,17.48
2022-11-13T09:00:47.202Z,18.23
2022-11-13T09:02:37.516Z,17.98
2022-11-13T09:04:27.584Z,18.38
2022-11-13T09:06:17.897Z,18.48
2022-11-13T09:08:07.947Z,16.92
2022-11-13T09:09:57.998Z,17.40
2022-11-13T09:11:48.558Z,16.33
2022-11-13T09:13:43.724Z,16.70
2022-11-13T09:15:38.444Z,17.15
2022-11-13T09:17:28.835Z,17.90
2022-11-13T09:19:19.265Z,17.38
2022-11-13T09:21:11.135Z,18.00
2022-11-13T09:23:07.375Z,18.00
2022-11-13T09:24:57.892Z,17.88
2022-11-13T09:26:48.135Z,17.40
2022-11-13T09:28:38.412Z,17.02
2022-11-13T09:30:29.843Z,16.40
2022-11-13T09:32:20.072Z,19.20
2022-11-13T09:34:10.271Z,16.33
2022-11-13T09:36:00.324Z,16.30
2022-11-13T09:37:52.640Z,17.17
2022-11-13T09:39:42.787Z,16.00
2022-11-13T09:41:47.697Z,14.77
2022-11-13T09:43:46.831Z,14.70
2022-11-13T09:45:39.127Z,15.10
2022-11-13T09:47:37.740Z,16.13
2022-11-13T09:49:42.265Z,14.65
2022-11-13T09:51:37.404Z,14.88
2022-11-13T09:53:34.187Z,15.05
2022-11-13T09:55:31.561Z,17.35
2022-11-13T09:57:27.792Z,15.35
2022-11-13T09:59:26.849Z,15.98
2022-11-13T10:01:36.792Z,15.35
2022-11-13T10:04:00.751Z,16.27
2022-11-13T10:06:16.417Z,16.25
2022-11-13T10:08:15.700Z,17.63
2022-11-13T10:10:24.589Z,13.35
2022-11-13T10:12:16.028Z,16.05
2022-11-13T10:14:20.946Z,14.85
2022-11-13T10:16:40.230Z,18.70
2022-11-13T10:18:35.975Z,16.33
2022-11-13T10:20:49.970Z,15.73
2022-11-13T10:22:52.216Z,15.77
2022-11-13T10:24:46.024Z,13.88
2022-11-13T10:26:36.601Z,14.73
2022-11-13T10:28:49.577Z,14.57
2022-11-13T10:30:40.621Z,15.40
2022-11-13T10:32:33.167Z,13.73
2022-11-13T10:34:23.384Z,14.57
2022-11-13T10:36:24.556Z,14.10
2022-11-13T10:38:17.251Z,13.65
2022-11-13T10:40:07.952Z,14.43
2022-11-13T10:41:58.079Z,13.85
2022-11-13T10:44:03.194Z,13.35
2022-11-13T10:46:02.151Z,13.65
2022-11-13T10:48:07.719Z,14.32
2022-11-13T10:50:35.701Z,15.05
2022-11-13T10:52:30.786Z,14.38
2022-11-13T10:54:25.092Z,13.02
2022-11-13T10:56:28.821Z,12.48
2022-11-13T10:58:20.039Z,13.50
2022-11-13T11:00:41.509Z,13.43
2022-11-13T11:02:31.809Z,14.23
2022-11-13T11:04:30.162Z,12.60
2022-11-13T11:06:20.402Z,11.45
2022-11-13T11:08:11.353Z,11.70
2022-11-13T11:10:02.263Z,10.90
2022-11-13T11:12:16.695Z,9.85
2022-11-13T11:14:27.169Z,10.85
2022-11-13T11:16:22.694Z,10.60
2022-11-13T11:18:28.829Z,8.85
2022-11-13T11:20:47.910Z,9.80
2022-11-13T11:22:41.115Z,10.55
2022-11-13T11:24:38.488Z,10.23
2022-11-13T11:26:47.500Z,10.38
2022-11-13T11:28:46.656Z,11.52
2022-11-13T11:30:44.240Z,9.98
2022-11-13T11:32:45.295Z,11.02
2022-11-13T11:34:45.045Z,9.70
2022-11-13T11:36:46.287Z,11.20
2022-11-13T11:38:55.993Z,10.73
2022-11-13T11:40:51.782Z,12.05
2022-11-13T11:43:08.229Z,15.00
2022-11-13T11:45:25.548Z,14.80
2022-11-13T11:47:17.875Z,15.32
2022-11-13T11:49:10.452Z,19.63
2022-11-13T11:51:16.952Z,18.02
2022-11-13T11:53:19.556Z,18.27
2022-11-13T11:55:34.221Z,14.23
2022-11-13T11:57:52.006Z,16.48
2022-11-13T11:59:57.472Z,16.55
2022-11-13T12:02:12.047Z,16.23
2022-11-13T12:04:33.694Z,14.80
2022-11-13T12:06:42.395Z,12.60
2022-11-13T12:09:00.903Z,14.35
2022-11-13T12:11:00.969Z,11.95
2022-11-13T12:13:09.361Z,16.40
2022-11-13T12:15:03.952Z,13.95
2022-11-13T12:16:56.777Z,15.27
2022-11-13T12:19:06.132Z,14.70
2022-11-13T12:21:05.203Z,11.50
2022-11-13T12:23:50.195Z,12.95
2022-11-13T12:25:48.986Z,12.02
2022-11-13T12:27:59.806Z,11.98
2022-11-13T12:30:16.329Z,15.00
2022-11-13T12:32:40.813Z,14.00
2022-11-13T12:34:34.197Z,13.70
2022-11-13T12:36:25.709Z,15.95
2022-11-13T12:38:32.284Z,13.63
2022-11-13T12:40:31.234Z,14.07
2022-11-13T12:42:32.464Z,14.25
2022-11-13T12:44:27.720Z,14.23
2022-11-13T12:46:18.829Z,12.73
2022-11-13T12:48:30.321Z,13.23
2022-11-13T12:52:24.583Z,11.73
2022-11-13T12:54:28.939Z,12.90
2022-11-13T12:56:26.514Z,13.00
2022-11-13T12:58:20.799Z,12.70
2022-11-13T13:00:22.698Z,13.30
2022-11-13T13:02:42.031Z,13.13
2022-11-13T13:04:50.399Z,12.77
2022-11-13T13:06:54.026Z,12.60
2022-11-13T13:08:56.472Z,13.13
2022-11-13T13:11:11.569Z,12.30
2022-11-13T13:13:14.851Z,11.82
2022-11-13T13:15:22.347Z,12.05
2022-11-13T13:17:15.559Z,11.77
2022-11-13T13:19:08.814Z,12.63
2022-11-13T13:21:06.288Z,13.40
2022-11-13T13:22:58.877Z,12.60
2022-11-13T13:24:59.936Z,11.60
2022-11-13T13:26:50.036Z,9.23
2022-11-13T13:28:42.919Z,12.57
2022-11-13T13:30:48.236Z,11.40
2022-11-13T13:33:26.787Z,17.38
2022-11-13T13:35:22.397Z,12.52
2022-11-13T13:37:37.689Z,12.77
2022-11-13T13:39:49.654Z,11.93
2022-11-13T13:43:54.761Z,13.85
2022-11-13T13:46:17.002Z,13.23
2022-11-13T13:48:12.462Z,12.27
2022-11-13T13:50:06.395Z,11.10
2022-11-13T13:51:58.223Z,11.77
2022-11-13T13:53:49.557Z,12.05
2022-11-13T13:55:47.826Z,14.68
2022-11-13T13:57:41.607Z,13.80
2022-11-13T13:59:37.840Z,12.77
2022-11-13T14:01:31.411Z,13.95
2022-11-13T14:03:23.667Z,13.55
2022-11-13T14:05:35.402Z,13.30
2022-11-13T14:07:29.785Z,13.35
2022-11-13T14:09:23.090Z,14.38
2022-11-13T14:11:18.836Z,14.45
2022-11-13T14:13:15.284Z,14.13
2022-11-13T14:15:19.259Z,12.68
2022-11-13T14:17:11.852Z,14.65
2022-11-13T14:19:05.773Z,15.85
2022-11-13T14:20:58.702Z,12.68
2022-11-13T14:22:56.275Z,13.23
2022-11-13T14:24:47.294Z,14.02
2022-11-13T14:26:37.991Z,13.70
2022-11-13T14:28:33.253Z,14.45
2022-11-13T14:30:26.295Z,16.42
2022-11-13T14:32:22.323Z,16.30
2022-11-13T14:34:18.474Z,14.20
2022-11-13T14:36:09.016Z,17.08
2022-11-13T14:37:59.185Z,16.13
2022-11-13T14:39:51.071Z,14.20
2022-11-13T14:41:47.492Z,14.38
2022-11-13T14:43:37.881Z,16.23
2022-11-13T14:45:31.131Z,15.95
2022-11-13T14:47:28.589Z,15.00
2022-11-13T14:49:38.952Z,14.77
2022-11-13T14:51:31.729Z,16.00
2022-11-13T14:53:41.917Z,14.70
2022-11-13T14:55:34.054Z,14.48
2022-11-13T14:57:24.330Z,14.30
2022-11-13T14:59:26.797Z,15.43
2022-11-13T15:01:24.481Z,17.67
2022-11-13T15:03:14.790Z,15.20
2022-11-13T15:05:05.384Z,15.73
2022-11-13T15:07:04.296Z,15.80
2022-11-13T15:08:56.651Z,15.90
2022-11-13T15:10:46.961Z,13.50
2022-11-13T15:12:37.289Z,17.60
2022-11-13T15:14:27.413Z,16.05
2022-11-13T15:16:28.587Z,14.50
2022-11-13T15:18:19.813Z,16.38
2022-11-13T15:20:16.011Z,18.65
2022-11-13T15:22:28.145Z,17.50
2022-11-13T15:24:19.466Z,19.52
2022-11-13T15:26:13.275Z,17.10
2022-11-13T15:28:03.477Z,16.00
2022-11-13T15:29:53.629Z,14.95
2022-11-13T15:31:46.207Z,18.38
2022-11-13T15:33:36.815Z,17.85
2022-11-13T15:35:27.268Z,18.73
2022-11-13T15:37:17.797Z,15.27
2022-11-13T15:39:21.136Z,17.13
2022-11-13T15:41:18.233Z,17.13
2022-11-13T15:43:18.127Z,16.80
2022-11-13T15:45:14.159Z,17.95
2022-11-13T15:47:12.181Z,20.58
2022-11-13T15:49:02.509Z,17.52
2022-11-13T15:50:52.581Z,19.48
2022-11-13T15:52:46.526Z,17.58
2022-11-13T15:54:38.421Z,20.10
2022-11-13T15:58:19.949Z,20.85
2022-11-13T16:00:18.542Z,18.25
2022-11-13T16:02:10.045Z,18.88
2022-11-13T16:04:02.520Z,18.17
2022-11-13T16:05:52.624Z,20.70
2022-11-13T16:07:43.317Z,17.70
2022-11-13T16:09:33.796Z,18.27
2022-11-13T16:11:23.906Z,18.13
2022-11-13T16:13:14.229Z,17.83
2022-11-13T16:15:04.756Z,20.23
2022-11-13T16:16:55.340Z,18.67
2022-11-13T16:18:45.699Z,18.08
2022-11-13T16:20:35.835Z,17.95
2022-11-13T16:22:27.208Z,18.33
2022-11-13T16:24:21.098Z,19.13
2022-11-13T16:26:18.073Z,19.50
2022-11-13T16:28:16.855Z,20.60
2022-11-13T16:30:14.424Z,22.63
2022-11-13T16:32:04.991Z,25.83
2022-11-13T16:33:55.102Z,23.30
2022-11-13T16:35:45.212Z,20.58
2022-11-13T16:37:35.560Z,24.02
2022-11-13T16:39:25.653Z,24.10
2022-11-13T16:41:16.778Z,23.40
2022-11-13T16:43:07.741Z,24.30
2022-11-13T16:44:57.800Z,23.47
2022-11-13T16:46:49.791Z,22.23
2022-11-13T16:48:41.955Z,23.30
2022-11-13T16:50:37.018Z,23.15
2022-11-13T16:52:27.368Z,22.83
2022-11-13T16:54:17.573Z,21.80
2022-11-13T16:56:16.281Z,21.52
2022-11-13T16:58:06.521Z,25.33
2022-11-13T16:59:56.684Z,26.85
2022-11-13T17:01:47.196Z,23.38
2022-11-13T17:03:37.562Z,21.50
2022-11-13T17:05:27.932Z,26.42
2022-11-13T17:07:18.296Z,22.15
2022-11-13T17:09:10.441Z,20.45
2022-11-13T17:11:00.668Z,23.05
2022-11-13T17:12:52.236Z,24.58
2022-11-13T17:16:32.892Z,24.52
2022-11-13T17:18:22.988Z,22.83
2022-11-13T17:20:14.252Z,21.85
2022-11-13T17:22:04.544Z,21.25
2022-11-13T17:23:59.404Z,21.17
2022-11-13T17:25:49.547Z,21.80
2022-11-13T17:27:39.834Z,23.10
2022-11-13T17:29:30.259Z,23.05
2022-11-13T17:31:20.908Z,21.95
2022-11-13T17:33:11.055Z,22.60
2022-11-13T17:35:01.225Z,22.80
2022-11-13T17:36:52.861Z,22.35
2022-11-13T17:38:42.987Z,23.67
2022-11-13T17:40:33.348Z,21.70
2022-11-13T17:42:23.646Z,23.92
2022-11-13T17:44:13.728Z,21.27
2022-11-13T17:46:05.544Z,25.02
2022-11-13T17:47:55.819Z,23.77
2022-11-13T17:49:45.938Z,23.08
2022-11-13T17:51:36.090Z,23.48
2022-11-13T17:53:26.889Z,23.25
2022-11-13T17:55:17.515Z,23.75
2022-11-13T17:57:10.429Z,24.70
2022-11-13T17:59:01.213Z,24.10
2022-11-13T18:00:52.561Z,24.08
2022-11-13T18:02:42.887Z,18.55
2022-11-13T18:04:33.177Z,23.67
2022-11-13T18:06:24.365Z,24.23
2022-11-13T18:08:14.682Z,22.30
2022-11-13T18:10:05.181Z,23.23
2022-11-13T18:11:55.546Z,21.83
2022-11-13T18:13:47.483Z,22.98
2022-11-13T18:15:39.175Z,22.23
2022-11-13T18:17:29.255Z,23.48
2022-11-13T18:19:19.466Z,22.38
2022-11-13T18:21:30.961Z,20.52
2022-11-13T18:23:21.231Z,22.95
2022-11-13T18:25:11.382Z,23.15
2022-11-13T18:27:02.160Z,22.45
2022-11-13T18:28:52.926Z,22.40
2022-11-13T18:30:44.813Z,22.65
2022-11-13T18:32:34.877Z,20.80
2022-11-13T18:34:26.108Z,22.67
2022-11-13T18:36:16.643Z,21.25
2022-11-13T18:38:06.952Z,22.63
2022-11-13T18:39:58.698Z,23.98
2022-11-13T18:41:49.200Z,22.40
2022-11-13T18:43:43.381Z,22.40
2022-11-13T18:45:33.649Z,21.85
2022-11-13T18:47:23.754Z,21.73
2022-11-13T18:49:14.162Z,22.52
2022-11-13T18:51:07.349Z,21.35
2022-11-13T18:52:57.443Z,21.50
2022-11-13T18:54:47.747Z,22.58
2022-11-13T18:56:40.723Z,22.70
2022-11-13T18:58:31.665Z,22.02
2022-11-13T19:00:21.767Z,22.85
2022-11-13T19:02:13.295Z,19.00
2022-11-13T19:06:15.148Z,28.00
2022-11-13T19:08:05.320Z,26.60
2022-11-13T19:09:55.618Z,25.27
2022-11-13T19:11:45.850Z,23.58
2022-11-13T19:13:36.945Z,26.02
2022-11-13T19:15:30.174Z,24.25
2022-11-13T19:17:20.353Z,29.40
2022-11-13T19:19:17.966Z,24.65
2022-11-13T19:21:13.850Z,26.45
2022-11-13T19:23:09.025Z,25.42
2022-11-13T19:24:59.872Z,25.60
2022-11-13T19:26:50.350Z,23.77
2022-11-13T19:28:40.890Z,23.25
2022-11-13T19:30:31.202Z,24.87
2022-11-13T19:32:21.494Z,25.30
2022-11-13T19:34:12.556Z,25.35
2022-11-13T19:36:11.420Z,24.75
2022-11-13T19:38:02.511Z,24.02
2022-11-13T19:39:52.812Z,25.45
2022-11-13T19:41:42.854Z,26.50
2022-11-13T19:43:38.036Z,24.15
2022-11-13T19:45:29.632Z,24.77
2022-11-13T19:49:10.076Z,28.17
2022-11-13T19:51:04.518Z,27.10
2022-11-13T19:52:54.692Z,28.50
2022-11-13T19:54:45.205Z,27.75
2022-11-13T19:56:35.607Z,26.63
2022-11-13T19:58:26.272Z,27.35
2022-11-13T20:00:17.756Z,26.42
2022-11-13T20:02:09.281Z,24.02
2022-11-13T20:05:55.851Z,29.20
2022-11-13T20:07:46.141Z,27.60
2022-11-13T20:09:36.299Z,26.10
2022-11-13T20:11:27.440Z,22.58
2022-11-13T20:13:17.681Z,23.87
2022-11-13T20:15:08.630Z,26.45
2022-11-13T20:16:58.865Z,26.93
2022-11-13T20:18:50.622Z,23.70
2022-11-13T20:20:44.299Z,25.33
2022-11-13T20:22:35.381Z,24.85
2022-11-13T20:24:25.373Z,25.77
2022-11-13T20:26:16.807Z,24.88
2022-11-13T20:29:57.926Z,29.83
2022-11-13T20:31:49.253Z,27.17
2022-11-13T20:33:39.741Z,27.60
2022-11-13T20:35:29.910Z,26.13
2022-11-13T20:37:20.281Z,26.25
2022-11-13T20:39:10.781Z,24.30
2022-11-13T20:41:11.460Z,26.63
2022-11-13T20:43:02.536Z,25.42
2022-11-13T20:44:56.174Z,25.70
2022-11-13T20:46:50.139Z,27.42
2022-11-13T20:48:40.273Z,26.85
2022-11-13T20:50:30.644Z,27.88
2022-11-13T20:52:21.039Z,27.23
2022-11-13T20:54:11.429Z,26.98
2022-11-13T20:56:01.715Z,25.95
2022-11-13T20:57:51.926Z,25.42
2022-11-13T20:59:42.690Z,26.73
2022-11-13T21:01:36.689Z,26.40
2022-11-13T21:03:26.931Z,27.38
2022-11-13T21:05:17.056Z,25.73
2022-11-13T21:07:07.296Z,25.83
2022-11-13T21:08:58.205Z,25.73
2022-11-13T21:10:48.545Z,27.33
2022-11-13T21:12:38.714Z,28.15
2022-11-13T21:14:29.212Z,25.83
2022-11-13T21:16:19.964Z,25.65
2022-11-13T21:18:10.254Z,25.88
2022-11-13T21:20:00.572Z,26.33
2022-11-13T21:21:50.986Z,26.65
2022-11-13T21:23:41.365Z,28.98
2022-11-13T21:25:31.680Z,29.83
2022-11-13T21:27:21.834Z,25.80
2022-11-13T21:29:12.099Z,25.73
2022-11-13T21:31:03.913Z,23.80
2022-11-13T21:32:53.915Z,26.27
2022-11-13T21:34:46.530Z,25.65
2022-11-13T21:36:36.949Z,26.45
2022-11-13T21:38:27.518Z,26.42
2022-11-13T21:40:17.898Z,27.60
2022-11-13T21:42:08.261Z,22.92
2022-11-13T21:44:03.338Z,24.33
2022-11-13T21:45:53.910Z,26.40
2022-11-13T21:47:44.056Z,24.67
2022-11-13T21:49:34.652Z,23.83
2022-11-13T21:51:25.648Z,24.45
2022-11-13T21:53:15.868Z,24.35
2022-11-13T21:55:06.550Z,23.58
2022-11-13T21:56:56.685Z,23.37
2022-11-13T21:58:46.944Z,26.50
2022-11-13T22:00:37.368Z,24.40
2022-11-13T22:02:27.856Z,26.02
2022-11-13T22:04:18.208Z,24.08
2022-11-13T22:06:14.672Z,23.15
2022-11-13T22:08:04.844Z,32.92
2022-11-13T22:09:55.296Z,28.80
2022-11-13T22:11:45.485Z,22.85
2022-11-13T22:13:35.752Z,23.40
2022-11-13T22:15:26.047Z,23.65
2022-11-13T22:17:16.468Z,20.70
2022-11-13T22:19:11.100Z,22.60
2022-11-13T22:21:06.346Z,20.85
2022-11-13T22:22:56.694Z,26.20
2022-11-13T22:24:47.034Z,22.08
2022-11-13T22:26:40.039Z,20.25
2022-11-13T22:28:30.634Z,22.58
2022-11-13T22:30:21.338Z,25.80
2022-11-13T22:32:11.637Z,23.92
2022-11-13T22:34:02.507Z,24.13
2022-11-13T22:35:52.557Z,23.35
2022-11-13T22:37:42.626Z,22.55
2022-11-13T22:39:32.791Z,21.65
2022-11-13T22:41:25.047Z,23.35
2022-11-13T22:43:15.163Z,22.02
2022-11-13T22:45:22.476Z,22.15
2022-11-13T22:47:14.130Z,20.92
2022-11-13T22:49:06.023Z,21.60
2022-11-13T22:50:57.048Z,22.58
2022-11-13T22:52:47.179Z,22.20
2022-11-13T22:54:37.572Z,22.50
2022-11-13T22:56:29.905Z,19.90
2022-11-13T22:58:20.515Z,20.30
2022-11-13T23:00:11.264Z,20.90
2022-11-13T23:02:01.836Z,20.75
2022-11-13T23:03:54.097Z,21.73
2022-11-13T23:05:44.627Z,20.48
2022-11-13T23:07:34.776Z,21.02
2022-11-13T23:09:27.232Z,20.55
2022-11-13T23:11:27.516Z,20.50
2022-11-13T23:13:17.749Z,23.42
2022-11-13T23:15:08.420Z,20.55
2022-11-13T23:16:58.452Z,15.25
2022-11-13T23:18:50.136Z,21.98
2022-11-13T23:20:44.154Z,20.88
2022-11-13T23:22:34.796Z,20.40
2022-11-13T23:24:25.282Z,21.83
2022-11-13T23:26:16.589Z,21.42
2022-11-13T23:28:06.821Z,21.08
2022-11-13T23:29:57.449Z,21.73
2022-11-13T23:31:47.976Z,20.38
2022-11-13T23:33:40.315Z,20.35
2022-11-13T23:35:30.641Z,21.05
2022-11-13T23:37:21.389Z,21.15
2022-11-13T23:39:11.494Z,20.90
2022-11-13T23:41:01.981Z,22.67
2022-11-13T23:42:55.889Z,20.98
2022-11-13T23:44:46.531Z,21.80
2022-11-13T23:46:36.643Z,21.85
2022-11-13T23:48:27.000Z,22.92
2022-11-13T23:50:17.767Z,20.45
2022-11-13T23:52:08.204Z,21.60
2022-11-13T23:53:58.664Z,21.27
2022-11-13T23:55:48.961Z,22.15
2022-11-13T23:57:39.153Z,21.52
2022-11-13T23:59:29.242Z,22.73
